sensor_id;sensor_type;location;lat;lon;timestamp;P1;durP1;ratioP1;P2;durP2;ratioP2
21733;SDS011;11029;47.820;10.534;2023-06-26T00:01:03;6.85;;;5.97;;
21733;SDS011;11029;47.820;10.534;2023-06-26T00:03:32;8.00;;;6.78;;
21733;SDS011;11029;47.820;10.534;2023-06-26T00:05:59;8.15;;;6.65;;
21733;SDS011;11029;47.820;10.534;2023-06-26T00:08:27;8.40;;;6.38;;
21733;SDS011;11029;47.820;10.534;2023-06-26T00:10:55;9.38;;;6.80;;
21733;SDS011;11029;47.820;10.534;2023-06-26T00:13:22;7.60;;;6.03;;
21733;SDS011;11029;47.820;10.534;2023-06-26T00:15:50;9.10;;;6.63;;
21733;SDS011;11029;47.820;10.534;2023-06-26T00:18:17;7.70;;;5.90;;
21733;SDS011;11029;47.820;10.534;2023-06-26T00:20:44;7.30;;;6.22;;
21733;SDS011;11029;47.820;10.534;2023-06-26T00:23:11;7.80;;;5.93;;
21733;SDS011;11029;47.820;10.534;2023-06-26T00:25:39;7.80;;;6.22;;
21733;SDS011;11029;47.820;10.534;2023-06-26T00:28:06;7.60;;;5.65;;
21733;SDS011;11029;47.820;10.534;2023-06-26T00:30:33;7.57;;;6.18;;
21733;SDS011;11029;47.820;10.534;2023-06-26T00:33:00;9.52;;;6.28;;
21733;SDS011;11029;47.820;10.534;2023-06-26T00:35:27;9.23;;;6.18;;
21733;SDS011;11029;47.820;10.534;2023-06-26T00:37:54;8.18;;;6.47;;
21733;SDS011;11029;47.820;10.534;2023-06-26T00:40:20;9.57;;;6.63;;
21733;SDS011;11029;47.820;10.534;2023-06-26T00:42:47;8.25;;;6.28;;
21733;SDS011;11029;47.820;10.534;2023-06-26T00:45:14;7.80;;;6.15;;
21733;SDS011;11029;47.820;10.534;2023-06-26T00:47:44;8.13;;;6.13;;
21733;SDS011;11029;47.820;10.534;2023-06-26T00:50:11;9.02;;;6.28;;
21733;SDS011;11029;47.820;10.534;2023-06-26T00:52:39;7.88;;;6.55;;
21733;SDS011;11029;47.820;10.534;2023-06-26T00:55:06;8.18;;;6.40;;
21733;SDS011;11029;47.820;10.534;2023-06-26T00:57:35;9.40;;;6.43;;
21733;SDS011;11029;47.820;10.534;2023-06-26T01:00:02;7.95;;;6.68;;
21733;SDS011;11029;47.820;10.534;2023-06-26T01:02:30;7.60;;;6.43;;
21733;SDS011;11029;47.820;10.534;2023-06-26T01:05:00;9.00;;;6.10;;
21733;SDS011;11029;47.820;10.534;2023-06-26T01:07:34;7.30;;;5.97;;
21733;SDS011;11029;47.820;10.534;2023-06-26T01:10:05;7.57;;;6.35;;
21733;SDS011;11029;47.820;10.534;2023-06-26T01:12:33;7.93;;;6.05;;
21733;SDS011;11029;47.820;10.534;2023-06-26T01:15:00;7.57;;;6.03;;
21733;SDS011;11029;47.820;10.534;2023-06-26T01:17:27;7.65;;;5.93;;
21733;SDS011;11029;47.820;10.534;2023-06-26T01:19:59;8.10;;;6.15;;
21733;SDS011;11029;47.820;10.534;2023-06-26T01:22:31;7.28;;;5.97;;
21733;SDS011;11029;47.820;10.534;2023-06-26T01:27:50;9.40;;;6.60;;
21733;SDS011;11029;47.820;10.534;2023-06-26T01:30:20;8.02;;;6.53;;
21733;SDS011;11029;47.820;10.534;2023-06-26T01:32:48;8.55;;;6.55;;
21733;SDS011;11029;47.820;10.534;2023-06-26T01:35:16;8.20;;;5.88;;
21733;SDS011;11029;47.820;10.534;2023-06-26T01:37:44;8.05;;;6.38;;
21733;SDS011;11029;47.820;10.534;2023-06-26T01:40:10;9.25;;;6.40;;
21733;SDS011;11029;47.820;10.534;2023-06-26T01:42:38;7.85;;;5.88;;
21733;SDS011;11029;47.820;10.534;2023-06-26T01:45:07;8.10;;;6.72;;
21733;SDS011;11029;47.820;10.534;2023-06-26T01:47:50;8.27;;;6.55;;
21733;SDS011;11029;47.820;10.534;2023-06-26T01:50:21;7.95;;;6.72;;
21733;SDS011;11029;47.820;10.534;2023-06-26T01:53:03;7.03;;;5.82;;
21733;SDS011;11029;47.820;10.534;2023-06-26T01:55:59;7.25;;;5.72;;
21733;SDS011;11029;47.820;10.534;2023-06-26T01:58:31;8.95;;;6.53;;
21733;SDS011;11029;47.820;10.534;2023-06-26T02:01:00;8.23;;;6.43;;
21733;SDS011;11029;47.820;10.534;2023-06-26T02:03:27;7.43;;;5.88;;
21733;SDS011;11029;47.820;10.534;2023-06-26T02:05:54;7.28;;;5.88;;
21733;SDS011;11029;47.820;10.534;2023-06-26T02:08:21;6.72;;;5.53;;
21733;SDS011;11029;47.820;10.534;2023-06-26T02:10:49;8.30;;;6.30;;
21733;SDS011;11029;47.820;10.534;2023-06-26T02:13:15;8.75;;;6.28;;
21733;SDS011;11029;47.820;10.534;2023-06-26T02:15:42;9.60;;;6.85;;
21733;SDS011;11029;47.820;10.534;2023-06-26T02:18:09;7.50;;;6.25;;
21733;SDS011;11029;47.820;10.534;2023-06-26T02:20:36;10.75;;;6.35;;
21733;SDS011;11029;47.820;10.534;2023-06-26T02:23:03;7.72;;;5.97;;
21733;SDS011;11029;47.820;10.534;2023-06-26T02:25:30;8.30;;;6.20;;
21733;SDS011;11029;47.820;10.534;2023-06-26T02:27:57;8.70;;;6.30;;
21733;SDS011;11029;47.820;10.534;2023-06-26T02:30:24;8.15;;;5.93;;
21733;SDS011;11029;47.820;10.534;2023-06-26T02:32:50;8.48;;;6.88;;
21733;SDS011;11029;47.820;10.534;2023-06-26T02:35:17;7.55;;;6.15;;
21733;SDS011;11029;47.820;10.534;2023-06-26T02:37:44;7.97;;;6.00;;
21733;SDS011;11029;47.820;10.534;2023-06-26T02:40:12;8.18;;;6.05;;
21733;SDS011;11029;47.820;10.534;2023-06-26T02:42:40;7.55;;;5.88;;
21733;SDS011;11029;47.820;10.534;2023-06-26T02:45:07;7.53;;;5.70;;
21733;SDS011;11029;47.820;10.534;2023-06-26T02:47:34;7.47;;;6.00;;
21733;SDS011;11029;47.820;10.534;2023-06-26T02:50:03;6.72;;;5.38;;
21733;SDS011;11029;47.820;10.534;2023-06-26T02:52:43;8.73;;;5.88;;
21733;SDS011;11029;47.820;10.534;2023-06-26T02:55:10;7.22;;;5.95;;
21733;SDS011;11029;47.820;10.534;2023-06-26T02:57:37;6.57;;;5.45;;
21733;SDS011;11029;47.820;10.534;2023-06-26T03:00:04;8.27;;;5.90;;
21733;SDS011;11029;47.820;10.534;2023-06-26T03:02:39;7.20;;;5.90;;
21733;SDS011;11029;47.820;10.534;2023-06-26T03:05:09;7.00;;;6.00;;
21733;SDS011;11029;47.820;10.534;2023-06-26T03:07:36;7.82;;;5.93;;
21733;SDS011;11029;47.820;10.534;2023-06-26T03:10:04;7.53;;;6.28;;
21733;SDS011;11029;47.820;10.534;2023-06-26T03:12:31;6.57;;;5.60;;
21733;SDS011;11029;47.820;10.534;2023-06-26T03:14:58;7.95;;;6.30;;
21733;SDS011;11029;47.820;10.534;2023-06-26T03:17:38;9.52;;;7.25;;
21733;SDS011;11029;47.820;10.534;2023-06-26T03:20:08;8.85;;;6.70;;
21733;SDS011;11029;47.820;10.534;2023-06-26T03:22:46;9.05;;;7.07;;
21733;SDS011;11029;47.820;10.534;2023-06-26T03:25:15;8.20;;;6.43;;
21733;SDS011;11029;47.820;10.534;2023-06-26T03:27:42;9.65;;;5.80;;
21733;SDS011;11029;47.820;10.534;2023-06-26T03:30:09;8.15;;;5.82;;
21733;SDS011;11029;47.820;10.534;2023-06-26T03:32:39;7.65;;;5.60;;
21733;SDS011;11029;47.820;10.534;2023-06-26T03:35:06;8.18;;;6.18;;
21733;SDS011;11029;47.820;10.534;2023-06-26T03:37:33;7.72;;;6.40;;
21733;SDS011;11029;47.820;10.534;2023-06-26T03:40:00;8.00;;;5.85;;
21733;SDS011;11029;47.820;10.534;2023-06-26T03:42:26;8.38;;;6.65;;
21733;SDS011;11029;47.820;10.534;2023-06-26T03:44:53;8.55;;;6.63;;
21733;SDS011;11029;47.820;10.534;2023-06-26T03:47:20;7.90;;;6.78;;
21733;SDS011;11029;47.820;10.534;2023-06-26T03:49:47;7.63;;;6.07;;
21733;SDS011;11029;47.820;10.534;2023-06-26T03:52:14;8.73;;;6.55;;
21733;SDS011;11029;47.820;10.534;2023-06-26T03:54:41;8.70;;;6.60;;
21733;SDS011;11029;47.820;10.534;2023-06-26T03:57:09;7.78;;;6.35;;
21733;SDS011;11029;47.820;10.534;2023-06-26T03:59:36;8.70;;;6.30;;
21733;SDS011;11029;47.820;10.534;2023-06-26T04:02:03;8.43;;;6.60;;
21733;SDS011;11029;47.820;10.534;2023-06-26T04:04:30;7.65;;;6.57;;
21733;SDS011;11029;47.820;10.534;2023-06-26T04:06:57;7.57;;;5.95;;
21733;SDS011;11029;47.820;10.534;2023-06-26T04:09:25;10.80;;;6.88;;
21733;SDS011;11029;47.820;10.534;2023-06-26T04:11:52;7.80;;;6.50;;
21733;SDS011;11029;47.820;10.534;2023-06-26T04:14:19;9.43;;;6.60;;
21733;SDS011;11029;47.820;10.534;2023-06-26T04:16:46;8.48;;;6.68;;
21733;SDS011;11029;47.820;10.534;2023-06-26T04:19:12;8.30;;;6.60;;
21733;SDS011;11029;47.820;10.534;2023-06-26T04:21:40;8.93;;;6.32;;
21733;SDS011;11029;47.820;10.534;2023-06-26T04:24:07;13.35;;;9.93;;
21733;SDS011;11029;47.820;10.534;2023-06-26T04:26:34;14.55;;;9.68;;
21733;SDS011;11029;47.820;10.534;2023-06-26T04:29:01;10.00;;;7.78;;
21733;SDS011;11029;47.820;10.534;2023-06-26T04:31:27;8.27;;;6.40;;
21733;SDS011;11029;47.820;10.534;2023-06-26T04:33:54;8.50;;;6.88;;
21733;SDS011;11029;47.820;10.534;2023-06-26T04:36:21;8.88;;;6.65;;
21733;SDS011;11029;47.820;10.534;2023-06-26T04:38:48;9.27;;;6.70;;
21733;SDS011;11029;47.820;10.534;2023-06-26T04:41:15;9.73;;;6.60;;
21733;SDS011;11029;47.820;10.534;2023-06-26T04:43:42;9.23;;;5.97;;
21733;SDS011;11029;47.820;10.534;2023-06-26T04:46:09;11.80;;;7.18;;
21733;SDS011;11029;47.820;10.534;2023-06-26T04:48:35;9.77;;;7.28;;
21733;SDS011;11029;47.820;10.534;2023-06-26T04:51:02;8.40;;;6.72;;
21733;SDS011;11029;47.820;10.534;2023-06-26T04:53:29;10.02;;;7.15;;
21733;SDS011;11029;47.820;10.534;2023-06-26T04:55:56;10.80;;;7.00;;
21733;SDS011;11029;47.820;10.534;2023-06-26T04:58:22;8.13;;;6.20;;
21733;SDS011;11029;47.820;10.534;2023-06-26T05:00:49;8.80;;;6.68;;
21733;SDS011;11029;47.820;10.534;2023-06-26T05:03:17;7.75;;;6.60;;
21733;SDS011;11029;47.820;10.534;2023-06-26T05:05:44;8.77;;;6.82;;
21733;SDS011;11029;47.820;10.534;2023-06-26T05:10:46;7.28;;;6.43;;
21733;SDS011;11029;47.820;10.534;2023-06-26T05:13:13;8.45;;;6.20;;
21733;SDS011;11029;47.820;10.534;2023-06-26T05:15:44;8.05;;;6.28;;
21733;SDS011;11029;47.820;10.534;2023-06-26T05:18:11;7.82;;;6.35;;
21733;SDS011;11029;47.820;10.534;2023-06-26T05:20:38;8.52;;;6.18;;
21733;SDS011;11029;47.820;10.534;2023-06-26T05:23:06;7.22;;;6.18;;
21733;SDS011;11029;47.820;10.534;2023-06-26T05:25:33;6.93;;;5.43;;
21733;SDS011;11029;47.820;10.534;2023-06-26T05:28:00;7.20;;;5.43;;
21733;SDS011;11029;47.820;10.534;2023-06-26T05:30:27;6.47;;;5.70;;
21733;SDS011;11029;47.820;10.534;2023-06-26T05:32:54;7.03;;;5.13;;
21733;SDS011;11029;47.820;10.534;2023-06-26T05:35:22;9.15;;;5.43;;
21733;SDS011;11029;47.820;10.534;2023-06-26T05:37:49;5.45;;;4.75;;
21733;SDS011;11029;47.820;10.534;2023-06-26T05:40:17;6.03;;;5.43;;
21733;SDS011;11029;47.820;10.534;2023-06-26T05:42:45;5.93;;;5.32;;
21733;SDS011;11029;47.820;10.534;2023-06-26T05:45:12;6.03;;;4.90;;
21733;SDS011;11029;47.820;10.534;2023-06-26T05:47:39;6.47;;;5.20;;
21733;SDS011;11029;47.820;10.534;2023-06-26T05:50:06;5.65;;;5.15;;
21733;SDS011;11029;47.820;10.534;2023-06-26T05:52:34;8.23;;;5.40;;
21733;SDS011;11029;47.820;10.534;2023-06-26T05:55:02;6.90;;;5.32;;
21733;SDS011;11029;47.820;10.534;2023-06-26T05:57:29;6.35;;;5.35;;
21733;SDS011;11029;47.820;10.534;2023-06-26T05:59:57;5.68;;;4.95;;
21733;SDS011;11029;47.820;10.534;2023-06-26T06:02:24;5.88;;;5.15;;
21733;SDS011;11029;47.820;10.534;2023-06-26T06:04:50;5.88;;;4.95;;
21733;SDS011;11029;47.820;10.534;2023-06-26T06:07:17;6.03;;;5.43;;
21733;SDS011;11029;47.820;10.534;2023-06-26T06:09:44;6.40;;;5.32;;
21733;SDS011;11029;47.820;10.534;2023-06-26T06:12:11;8.00;;;5.47;;
21733;SDS011;11029;47.820;10.534;2023-06-26T06:14:37;5.88;;;4.97;;
21733;SDS011;11029;47.820;10.534;2023-06-26T06:17:04;6.97;;;5.28;;
21733;SDS011;11029;47.820;10.534;2023-06-26T06:19:31;5.88;;;5.30;;
21733;SDS011;11029;47.820;10.534;2023-06-26T06:21:58;5.80;;;5.30;;
21733;SDS011;11029;47.820;10.534;2023-06-26T06:24:24;6.00;;;5.10;;
21733;SDS011;11029;47.820;10.534;2023-06-26T06:26:51;5.55;;;4.97;;
21733;SDS011;11029;47.820;10.534;2023-06-26T06:29:18;7.40;;;5.63;;
21733;SDS011;11029;47.820;10.534;2023-06-26T06:31:46;7.28;;;5.47;;
21733;SDS011;11029;47.820;10.534;2023-06-26T06:34:13;5.30;;;4.80;;
21733;SDS011;11029;47.820;10.534;2023-06-26T06:36:40;5.95;;;5.22;;
21733;SDS011;11029;47.820;10.534;2023-06-26T06:39:07;5.88;;;5.25;;
21733;SDS011;11029;47.820;10.534;2023-06-26T06:41:34;5.95;;;4.82;;
21733;SDS011;11029;47.820;10.534;2023-06-26T06:44:04;6.05;;;5.45;;
21733;SDS011;11029;47.820;10.534;2023-06-26T06:46:31;6.88;;;5.53;;
21733;SDS011;11029;47.820;10.534;2023-06-26T06:48:58;6.03;;;5.45;;
21733;SDS011;11029;47.820;10.534;2023-06-26T06:51:26;8.50;;;5.38;;
21733;SDS011;11029;47.820;10.534;2023-06-26T06:53:53;6.57;;;5.35;;
21733;SDS011;11029;47.820;10.534;2023-06-26T06:56:19;6.35;;;5.75;;
21733;SDS011;11029;47.820;10.534;2023-06-26T06:58:46;6.53;;;5.65;;
21733;SDS011;11029;47.820;10.534;2023-06-26T07:01:13;6.18;;;5.22;;
21733;SDS011;11029;47.820;10.534;2023-06-26T07:03:40;8.30;;;5.38;;
21733;SDS011;11029;47.820;10.534;2023-06-26T07:06:07;6.18;;;5.57;;
21733;SDS011;11029;47.820;10.534;2023-06-26T07:08:34;6.68;;;5.45;;
21733;SDS011;11029;47.820;10.534;2023-06-26T07:11:01;6.13;;;5.13;;
21733;SDS011;11029;47.820;10.534;2023-06-26T07:13:29;6.10;;;5.40;;
21733;SDS011;11029;47.820;10.534;2023-06-26T07:15:56;6.18;;;5.13;;
21733;SDS011;11029;47.820;10.534;2023-06-26T07:18:22;6.10;;;5.00;;
21733;SDS011;11029;47.820;10.534;2023-06-26T07:20:49;6.25;;;5.60;;
21733;SDS011;11029;47.820;10.534;2023-06-26T07:23:16;7.50;;;5.53;;
21733;SDS011;11029;47.820;10.534;2023-06-26T07:25:43;5.57;;;5.00;;
21733;SDS011;11029;47.820;10.534;2023-06-26T07:28:10;6.20;;;5.60;;
21733;SDS011;11029;47.820;10.534;2023-06-26T07:30:38;7.07;;;5.55;;
21733;SDS011;11029;47.820;10.534;2023-06-26T07:33:05;5.45;;;4.63;;
21733;SDS011;11029;47.820;10.534;2023-06-26T07:35:32;5.50;;;4.95;;
21733;SDS011;11029;47.820;10.534;2023-06-26T07:37:59;5.28;;;4.78;;
21733;SDS011;11029;47.820;10.534;2023-06-26T07:40:26;5.40;;;4.90;;
21733;SDS011;11029;47.820;10.534;2023-06-26T07:42:53;5.85;;;5.25;;
21733;SDS011;11029;47.820;10.534;2023-06-26T07:45:20;5.57;;;5.03;;
21733;SDS011;11029;47.820;10.534;2023-06-26T07:47:48;6.28;;;5.68;;
21733;SDS011;11029;47.820;10.534;2023-06-26T07:50:15;5.05;;;4.53;;
21733;SDS011;11029;47.820;10.534;2023-06-26T07:52:47;6.00;;;4.90;;
21733;SDS011;11029;47.820;10.534;2023-06-26T07:55:14;5.60;;;4.85;;
21733;SDS011;11029;47.820;10.534;2023-06-26T07:57:41;5.65;;;5.15;;
21733;SDS011;11029;47.820;10.534;2023-06-26T08:00:08;5.03;;;4.53;;
21733;SDS011;11029;47.820;10.534;2023-06-26T08:02:41;5.32;;;4.82;;
21733;SDS011;11029;47.820;10.534;2023-06-26T08:05:08;5.88;;;4.75;;
21733;SDS011;11029;47.820;10.534;2023-06-26T08:07:35;11.02;;;5.00;;
21733;SDS011;11029;47.820;10.534;2023-06-26T08:10:02;6.40;;;4.47;;
21733;SDS011;11029;47.820;10.534;2023-06-26T08:12:29;6.75;;;4.85;;
21733;SDS011;11029;47.820;10.534;2023-06-26T08:14:55;5.78;;;5.00;;
21733;SDS011;11029;47.820;10.534;2023-06-26T08:17:22;5.47;;;5.00;;
21733;SDS011;11029;47.820;10.534;2023-06-26T08:19:49;6.95;;;4.93;;
21733;SDS011;11029;47.820;10.534;2023-06-26T08:22:15;5.20;;;4.70;;
21733;SDS011;11029;47.820;10.534;2023-06-26T08:24:42;8.27;;;4.65;;
21733;SDS011;11029;47.820;10.534;2023-06-26T08:27:09;5.30;;;4.70;;
21733;SDS011;11029;47.820;10.534;2023-06-26T08:29:36;5.30;;;4.80;;
21733;SDS011;11029;47.820;10.534;2023-06-26T08:32:03;5.32;;;4.82;;
21733;SDS011;11029;47.820;10.534;2023-06-26T08:34:30;4.70;;;4.30;;
21733;SDS011;11029;47.820;10.534;2023-06-26T08:36:57;5.38;;;4.88;;
21733;SDS011;11029;47.820;10.534;2023-06-26T08:39:23;5.95;;;4.47;;
21733;SDS011;11029;47.820;10.534;2023-06-26T08:41:50;5.00;;;4.50;;
21733;SDS011;11029;47.820;10.534;2023-06-26T08:44:17;6.53;;;4.55;;
21733;SDS011;11029;47.820;10.534;2023-06-26T08:46:44;5.00;;;4.60;;
21733;SDS011;11029;47.820;10.534;2023-06-26T08:49:18;6.68;;;4.72;;
21733;SDS011;11029;47.820;10.534;2023-06-26T08:51:52;5.00;;;4.50;;
21733;SDS011;11029;47.820;10.534;2023-06-26T08:54:27;6.25;;;4.50;;
21733;SDS011;11029;47.820;10.534;2023-06-26T08:57:00;4.93;;;4.45;;
21733;SDS011;11029;47.820;10.534;2023-06-26T08:59:29;5.53;;;4.20;;
21733;SDS011;11029;47.820;10.534;2023-06-26T09:01:56;5.00;;;4.50;;
21733;SDS011;11029;47.820;10.534;2023-06-26T09:04:23;4.90;;;4.38;;
21733;SDS011;11029;47.820;10.534;2023-06-26T09:06:51;6.22;;;4.40;;
21733;SDS011;11029;47.820;10.534;2023-06-26T09:09:18;4.82;;;4.43;;
21733;SDS011;11029;47.820;10.534;2023-06-26T09:11:44;6.22;;;4.60;;
21733;SDS011;11029;47.820;10.534;2023-06-26T09:14:11;7.45;;;4.35;;
21733;SDS011;11029;47.820;10.534;2023-06-26T09:16:40;5.95;;;4.40;;
21733;SDS011;11029;47.820;10.534;2023-06-26T09:19:10;5.50;;;4.45;;
21733;SDS011;11029;47.820;10.534;2023-06-26T09:21:41;5.85;;;5.25;;
21733;SDS011;11029;47.820;10.534;2023-06-26T09:24:09;6.00;;;4.82;;
21733;SDS011;11029;47.820;10.534;2023-06-26T09:26:37;4.93;;;4.53;;
21733;SDS011;11029;47.820;10.534;2023-06-26T09:29:05;4.88;;;4.40;;
21733;SDS011;11029;47.820;10.534;2023-06-26T09:31:32;5.03;;;4.30;;
21733;SDS011;11029;47.820;10.534;2023-06-26T09:34:06;4.30;;;3.88;;
21733;SDS011;11029;47.820;10.534;2023-06-26T09:36:33;6.18;;;4.68;;
21733;SDS011;11029;47.820;10.534;2023-06-26T09:39:06;4.93;;;4.30;;
21733;SDS011;11029;47.820;10.534;2023-06-26T09:41:38;5.72;;;4.55;;
21733;SDS011;11029;47.820;10.534;2023-06-26T09:44:09;6.53;;;4.63;;
21733;SDS011;11029;47.820;10.534;2023-06-26T09:46:37;5.00;;;4.50;;
21733;SDS011;11029;47.820;10.534;2023-06-26T09:49:05;4.90;;;4.50;;
21733;SDS011;11029;47.820;10.534;2023-06-26T09:51:32;5.43;;;4.85;;
21733;SDS011;11029;47.820;10.534;2023-06-26T09:54:01;5.22;;;4.72;;
21733;SDS011;11029;47.820;10.534;2023-06-26T09:56:32;5.38;;;4.03;;
21733;SDS011;11029;47.820;10.534;2023-06-26T09:59:00;5.18;;;4.68;;
21733;SDS011;11029;47.820;10.534;2023-06-26T10:01:28;8.55;;;4.93;;
21733;SDS011;11029;47.820;10.534;2023-06-26T10:03:56;5.88;;;4.88;;
21733;SDS011;11029;47.820;10.534;2023-06-26T10:06:39;6.25;;;4.88;;
21733;SDS011;11029;47.820;10.534;2023-06-26T10:09:12;5.50;;;5.00;;
21733;SDS011;11029;47.820;10.534;2023-06-26T10:11:51;5.68;;;5.18;;
21733;SDS011;11029;47.820;10.534;2023-06-26T10:14:26;5.05;;;4.55;;
21733;SDS011;11029;47.820;10.534;2023-06-26T10:16:58;5.50;;;4.82;;
21733;SDS011;11029;47.820;10.534;2023-06-26T10:19:27;7.15;;;4.93;;
21733;SDS011;11029;47.820;10.534;2023-06-26T10:21:55;5.63;;;5.13;;
21733;SDS011;11029;47.820;10.534;2023-06-26T10:24:23;4.93;;;4.43;;
21733;SDS011;11029;47.820;10.534;2023-06-26T10:26:55;5.20;;;4.70;;
21733;SDS011;11029;47.820;10.534;2023-06-26T10:29:25;7.63;;;5.03;;
21733;SDS011;11029;47.820;10.534;2023-06-26T10:31:54;6.63;;;5.15;;
21733;SDS011;11029;47.820;10.534;2023-06-26T10:37:00;6.90;;;5.32;;
21733;SDS011;11029;47.820;10.534;2023-06-26T10:39:27;5.82;;;5.22;;
21733;SDS011;11029;47.820;10.534;2023-06-26T10:42:14;6.78;;;5.32;;
21733;SDS011;11029;47.820;10.534;2023-06-26T10:44:42;5.90;;;5.32;;
21733;SDS011;11029;47.820;10.534;2023-06-26T10:47:10;5.40;;;4.90;;
21733;SDS011;11029;47.820;10.534;2023-06-26T10:49:56;7.13;;;5.43;;
21733;SDS011;11029;47.820;10.534;2023-06-26T10:53:22;8.90;;;5.67;;
21733;SDS011;11029;47.820;10.534;2023-06-26T10:56:06;6.10;;;5.22;;
21733;SDS011;11029;47.820;10.534;2023-06-26T10:58:40;5.80;;;5.25;;
21733;SDS011;11029;47.820;10.534;2023-06-26T11:06:28;6.80;;;5.63;;
21733;SDS011;11029;47.820;10.534;2023-06-26T11:09:01;6.00;;;5.40;;
21733;SDS011;11029;47.820;10.534;2023-06-26T11:14:19;5.75;;;5.25;;
21733;SDS011;11029;47.820;10.534;2023-06-26T11:16:51;10.32;;;5.75;;
21733;SDS011;11029;47.820;10.534;2023-06-26T11:19:18;6.30;;;5.70;;
21733;SDS011;11029;47.820;10.534;2023-06-26T11:21:47;7.38;;;5.93;;
21733;SDS011;11029;47.820;10.534;2023-06-26T11:24:19;6.60;;;5.00;;
21733;SDS011;11029;47.820;10.534;2023-06-26T11:26:47;6.28;;;5.68;;
21733;SDS011;11029;47.820;10.534;2023-06-26T11:29:14;6.00;;;5.40;;
21733;SDS011;11029;47.820;10.534;2023-06-26T11:31:41;5.72;;;5.07;;
21733;SDS011;11029;47.820;10.534;2023-06-26T11:34:09;6.70;;;5.35;;
21733;SDS011;11029;47.820;10.534;2023-06-26T11:36:39;6.60;;;5.38;;
21733;SDS011;11029;47.820;10.534;2023-06-26T11:39:09;5.72;;;5.13;;
21733;SDS011;11029;47.820;10.534;2023-06-26T11:41:37;7.18;;;5.47;;
21733;SDS011;11029;47.820;10.534;2023-06-26T11:44:06;8.05;;;5.28;;
21733;SDS011;11029;47.820;10.534;2023-06-26T11:46:35;8.23;;;5.30;;
21733;SDS011;11029;47.820;10.534;2023-06-26T11:49:03;5.88;;;5.10;;
21733;SDS011;11029;47.820;10.534;2023-06-26T11:51:35;6.03;;;5.07;;
21733;SDS011;11029;47.820;10.534;2023-06-26T11:54:03;8.68;;;5.63;;
21733;SDS011;11029;47.820;10.534;2023-06-26T11:56:31;7.47;;;5.70;;
21733;SDS011;11029;47.820;10.534;2023-06-26T12:01:33;9.25;;;5.90;;
21733;SDS011;11029;47.820;10.534;2023-06-26T12:04:06;5.85;;;5.25;;
21733;SDS011;11029;47.820;10.534;2023-06-26T12:06:36;6.43;;;5.82;;
21733;SDS011;11029;47.820;10.534;2023-06-26T12:09:05;6.53;;;5.43;;
21733;SDS011;11029;47.820;10.534;2023-06-26T12:11:36;6.97;;;6.30;;
21733;SDS011;11029;47.820;10.534;2023-06-26T12:14:05;8.45;;;5.65;;
21733;SDS011;11029;47.820;10.534;2023-06-26T12:16:34;9.27;;;5.78;;
21733;SDS011;11029;47.820;10.534;2023-06-26T12:19:05;6.30;;;5.70;;
21733;SDS011;11029;47.820;10.534;2023-06-26T12:24:05;6.05;;;5.43;;
21733;SDS011;11029;47.820;10.534;2023-06-26T12:26:33;7.05;;;5.63;;
21733;SDS011;11029;47.820;10.534;2023-06-26T12:31:30;5.72;;;5.07;;
21733;SDS011;11029;47.820;10.534;2023-06-26T12:33:59;6.20;;;5.60;;
21733;SDS011;11029;47.820;10.534;2023-06-26T12:36:26;5.45;;;4.95;;
21733;SDS011;11029;47.820;10.534;2023-06-26T12:38:54;6.53;;;5.43;;
21733;SDS011;11029;47.820;10.534;2023-06-26T12:41:23;7.13;;;4.75;;
21733;SDS011;11029;47.820;10.534;2023-06-26T12:43:55;7.03;;;5.28;;
21733;SDS011;11029;47.820;10.534;2023-06-26T12:46:35;6.35;;;5.75;;
21733;SDS011;11029;47.820;10.534;2023-06-26T12:49:02;6.43;;;5.30;;
21733;SDS011;11029;47.820;10.534;2023-06-26T12:51:35;6.35;;;5.30;;
21733;SDS011;11029;47.820;10.534;2023-06-26T12:54:02;7.75;;;5.57;;
21733;SDS011;11029;47.820;10.534;2023-06-26T12:56:29;5.72;;;5.20;;
21733;SDS011;11029;47.820;10.534;2023-06-26T12:58:56;7.07;;;5.95;;
21733;SDS011;11029;47.820;10.534;2023-06-26T13:01:23;6.45;;;5.50;;
21733;SDS011;11029;47.820;10.534;2023-06-26T13:03:51;6.70;;;5.45;;
21733;SDS011;11029;47.820;10.534;2023-06-26T13:06:18;6.82;;;5.35;;
21733;SDS011;11029;47.820;10.534;2023-06-26T13:08:46;8.82;;;5.57;;
21733;SDS011;11029;47.820;10.534;2023-06-26T13:11:13;7.45;;;5.53;;
21733;SDS011;11029;47.820;10.534;2023-06-26T13:13:43;7.72;;;5.63;;
21733;SDS011;11029;47.820;10.534;2023-06-26T13:16:16;6.10;;;5.13;;
21733;SDS011;11029;47.820;10.534;2023-06-26T13:18:45;7.15;;;5.50;;
21733;SDS011;11029;47.820;10.534;2023-06-26T13:21:12;7.05;;;5.40;;
21733;SDS011;11029;47.820;10.534;2023-06-26T13:23:39;5.82;;;5.22;;
21733;SDS011;11029;47.820;10.534;2023-06-26T13:26:06;5.65;;;5.15;;
21733;SDS011;11029;47.820;10.534;2023-06-26T13:28:34;7.40;;;6.22;;
21733;SDS011;11029;47.820;10.534;2023-06-26T13:31:02;7.25;;;5.90;;
21733;SDS011;11029;47.820;10.534;2023-06-26T13:33:30;6.10;;;5.45;;
21733;SDS011;11029;47.820;10.534;2023-06-26T13:35:57;7.57;;;5.65;;
21733;SDS011;11029;47.820;10.534;2023-06-26T13:38:24;10.93;;;5.80;;
21733;SDS011;11029;47.820;10.534;2023-06-26T13:40:52;7.10;;;5.25;;
21733;SDS011;11029;47.820;10.534;2023-06-26T13:43:20;6.25;;;5.65;;
21733;SDS011;11029;47.820;10.534;2023-06-26T13:45:49;6.18;;;5.40;;
21733;SDS011;11029;47.820;10.534;2023-06-26T13:48:16;6.25;;;5.40;;
21733;SDS011;11029;47.820;10.534;2023-06-26T13:50:44;6.30;;;5.65;;
21733;SDS011;11029;47.820;10.534;2023-06-26T13:53:19;6.55;;;5.85;;
21733;SDS011;11029;47.820;10.534;2023-06-26T13:55:47;6.28;;;5.68;;
21733;SDS011;11029;47.820;10.534;2023-06-26T13:58:14;6.93;;;5.40;;
21733;SDS011;11029;47.820;10.534;2023-06-26T14:00:41;8.82;;;5.68;;
21733;SDS011;11029;47.820;10.534;2023-06-26T14:03:11;7.35;;;5.53;;
21733;SDS011;11029;47.820;10.534;2023-06-26T14:05:38;6.05;;;5.45;;
21733;SDS011;11029;47.820;10.534;2023-06-26T14:08:08;6.13;;;5.47;;
21733;SDS011;11029;47.820;10.534;2023-06-26T14:10:35;7.60;;;5.80;;
21733;SDS011;11029;47.820;10.534;2023-06-26T14:13:03;7.10;;;5.68;;
21733;SDS011;11029;47.820;10.534;2023-06-26T14:15:30;7.47;;;5.55;;
21733;SDS011;11029;47.820;10.534;2023-06-26T14:17:59;6.50;;;5.68;;
21733;SDS011;11029;47.820;10.534;2023-06-26T14:20:26;6.13;;;5.47;;
21733;SDS011;11029;47.820;10.534;2023-06-26T14:22:54;5.80;;;5.30;;
21733;SDS011;11029;47.820;10.534;2023-06-26T14:25:21;6.57;;;5.95;;
21733;SDS011;11029;47.820;10.534;2023-06-26T14:27:52;7.38;;;5.43;;
21733;SDS011;11029;47.820;10.534;2023-06-26T14:30:41;6.70;;;5.85;;
21733;SDS011;11029;47.820;10.534;2023-06-26T14:33:09;9.93;;;6.22;;
21733;SDS011;11029;47.820;10.534;2023-06-26T14:35:36;5.90;;;5.22;;
21733;SDS011;11029;47.820;10.534;2023-06-26T14:38:03;7.28;;;6.07;;
21733;SDS011;11029;47.820;10.534;2023-06-26T14:40:30;8.63;;;6.53;;
21733;SDS011;11029;47.820;10.534;2023-06-26T14:42:58;9.32;;;6.45;;
21733;SDS011;11029;47.820;10.534;2023-06-26T14:45:25;10.52;;;6.82;;
21733;SDS011;11029;47.820;10.534;2023-06-26T14:47:53;8.75;;;6.78;;
21733;SDS011;11029;47.820;10.534;2023-06-26T14:50:20;15.38;;;6.95;;
21733;SDS011;11029;47.820;10.534;2023-06-26T14:52:47;7.78;;;6.90;;
21733;SDS011;11029;47.820;10.534;2023-06-26T14:55:14;9.57;;;6.38;;
21733;SDS011;11029;47.820;10.534;2023-06-26T14:57:41;8.68;;;6.47;;
21733;SDS011;11029;47.820;10.534;2023-06-26T15:00:08;7.78;;;6.20;;
21733;SDS011;11029;47.820;10.534;2023-06-26T15:02:36;10.80;;;6.75;;
21733;SDS011;11029;47.820;10.534;2023-06-26T15:05:03;8.00;;;6.60;;